Time;durP1;ratioP1;P1;durP2;ratioP2;P2;SDS_P1;SDS_P2;PMS_P1;PMS_P2;Temp;Humidity;BMP_temperature;BMP_pressure;BME280_temperature;BME280_humidity;BME280_pressure;Samples;Min_cycle;Max_cycle;Signal;HPM_P1;HPM_P2
2022/10/23 00:00:30;;;;;;;;;;;25.40;97.00;;;;;;4194583;28;19935;-69
2022/10/23 00:02:34;;;;;;;;;;;25.40;97.60;;;;;;4194309;28;19932;-69
2022/10/23 00:04:39;;;;;;;;;;;25.50;96.70;;;;;;4207579;28;19924;-69
2022/10/23 00:06:44;;;;;;;;;;;25.40;96.50;;;;;;4192823;28;19925;-68
2022/10/23 00:08:50;;;;;;;;;;;25.30;96.20;;;;;;4193655;28;19935;-68
2022/10/23 00:10:59;;;;;;;;;;;25.40;96.30;;;;;;4194308;28;20454;-67
2022/10/23 00:13:04;;;;;;;;;;;25.40;95.80;;;;;;4194306;28;20656;-69
2022/10/23 00:15:09;;;;;;;;;;;25.50;96.10;;;;;;4207290;28;19928;-69
2022/10/23 00:17:18;;;;;;;;;;;25.70;95.90;;;;;;4192413;28;19925;-69
2022/10/23 00:19:23;;;;;;;;;;;25.70;95.60;;;;;;4176303;28;19932;-68
2022/10/23 00:21:28;;;;;;;;;;;25.60;95.20;;;;;;4188892;28;19928;-69
2022/10/23 00:23:37;;;;;;;;;;;25.70;95.30;;;;;;4193204;28;20436;-69
2022/10/23 00:25:41;;;;;;;;;;;25.70;95.40;;;;;;4190615;28;19928;-68
2022/10/23 00:27:46;;;;;;;;;;;25.80;95.40;;;;;;4188441;28;19946;-70
2022/10/23 00:29:54;;;;;;;;;;;25.70;95.20;;;;;;4194108;28;19928;-69
2022/10/23 00:32:07;;;;;;;;;;;25.80;95.30;;;;;;4193904;28;19928;-69
2022/10/23 00:34:13;;;;;;;;;;;25.90;95.20;;;;;;4194895;28;20344;-69
2022/10/23 00:36:23;;;;;;;;;;;26.00;95.10;;;;;;4192890;28;19925;-69
2022/10/23 00:38:32;;;;;;;;;;;26.00;95.00;;;;;;4208783;28;20026;-69
2022/10/23 00:40:41;;;;;;;;;;;26.00;95.10;;;;;;4193221;28;19933;-70
2022/10/23 00:43:00;;;;;;;;;;;26.10;95.30;;;;;;4187782;28;19959;-69
2022/10/23 00:45:25;;;;;;;;;;;26.20;95.50;;;;;;4195878;28;19976;-69
2022/10/23 00:47:31;;;;;;;;;;;26.20;95.60;;;;;;4208219;28;19932;-69
2022/10/23 00:49:38;;;;;;;;;;;26.20;95.50;;;;;;4208756;28;19982;-69
2022/10/23 00:51:50;;;;;;;;;;;26.20;95.20;;;;;;4191931;28;19963;-69
2022/10/23 00:53:59;;;;;;;;;;;26.20;94.90;;;;;;4179967;28;20002;-69
2022/10/23 00:56:25;;;;;;;;;;;26.20;94.80;;;;;;4207739;28;19943;-69
2022/10/23 00:58:33;;;;;;;;;;;26.20;94.90;;;;;;4192372;28;20404;-70
2022/10/23 01:00:55;;;;;;;;;;;26.20;94.90;;;;;;4170635;28;20036;-70
2022/10/23 01:03:14;;;;;;;;;;;26.20;94.40;;;;;;4192468;28;19932;-69
2022/10/23 01:05:22;;;;;;;;;;;26.20;94.50;;;;;;4191356;28;20539;-69
2022/10/23 01:07:27;;;;;;;;;;;26.20;94.30;;;;;;4206674;28;19924;-69
2022/10/23 01:09:51;;;;;;;;;;;26.30;94.30;;;;;;4208553;28;19932;-68
2022/10/23 01:12:05;;;;;;;;;;;26.30;94.20;;;;;;4192891;28;20358;-69
2022/10/23 01:14:39;;;;;;;;;;;26.30;94.20;;;;;;4207113;28;20417;-69
2022/10/23 01:16:50;;;;;;;;;;;26.40;94.20;;;;;;4141840;28;19929;-70
2022/10/23 01:19:01;;;;;;;;;;;26.40;94.00;;;;;;4141359;28;19965;-69
2022/10/23 01:21:27;;;;;;;;;;;26.40;93.30;;;;;;4145869;28;19929;-69
2022/10/23 01:23:34;;;;;;;;;;;26.30;93.30;;;;;;4164478;28;20031;-69
2022/10/23 01:25:47;;;;;;;;;;;26.30;93.70;;;;;;4167375;28;19929;-70
2022/10/23 01:27:55;;;;;;;;;;;26.40;93.40;;;;;;4161502;28;19941;-69
2022/10/23 01:30:05;;;;;;;;;;;26.50;93.10;;;;;;4155577;28;19940;-70
2022/10/23 01:32:21;;;;;;;;;;;26.50;93.00;;;;;;4151150;28;20455;-70
2022/10/23 01:34:46;;;;;;;;;;;26.60;93.00;;;;;;4146854;28;20352;-70
2022/10/23 01:36:56;;;;;;;;;;;26.60;93.00;;;;;;4166813;28;19952;-69
2022/10/23 01:39:08;;;;;;;;;;;26.70;92.80;;;;;;4164464;28;20643;-70
2022/10/23 01:41:13;;;;;;;;;;;26.70;92.80;;;;;;4150668;28;20413;-69
2022/10/23 01:43:20;;;;;;;;;;;26.70;92.90;;;;;;4151409;28;20060;-69
2022/10/23 01:45:30;;;;;;;;;;;26.80;93.10;;;;;;4156135;28;21782;-70
2022/10/23 01:47:38;;;;;;;;;;;26.80;93.10;;;;;;4147431;28;20371;-70
2022/10/23 01:49:50;;;;;;;;;;;26.80;92.70;;;;;;4158672;28;19928;-69
2022/10/23 01:51:56;;;;;;;;;;;26.80;92.80;;;;;;4167672;28;20015;-71
2022/10/23 01:54:09;;;;;;;;;;;26.80;92.60;;;;;;4163199;28;19929;-70
2022/10/23 01:56:21;;;;;;;;;;;26.90;92.60;;;;;;4192306;28;19929;-70
2022/10/23 01:58:25;;;;;;;;;;;27.00;93.00;;;;;;4190617;28;19935;-70
2022/10/23 02:00:31;;;;;;;;;;;27.00;92.60;;;;;;4191114;28;19986;-69
2022/10/23 02:02:39;;;;;;;;;;;27.10;92.10;;;;;;4194971;28;20741;-70
2022/10/23 02:04:48;;;;;;;;;;;27.10;92.20;;;;;;4200330;28;20441;-69
2022/10/23 02:06:53;;;;;;;;;;;27.20;92.20;;;;;;4191473;28;20043;-70
2022/10/23 02:09:01;;;;;;;;;;;27.30;91.80;;;;;;4193164;28;19944;-69
2022/10/23 02:11:05;;;;;;;;;;;27.30;91.00;;;;;;4206379;28;19931;-70
2022/10/23 02:13:11;;;;;;;;;;;27.40;91.20;;;;;;4192107;28;19977;-71
2022/10/23 02:15:30;;;;;;;;;;;27.50;91.00;;;;;;4190598;28;19929;-70
2022/10/23 02:17:42;;;;;;;;;;;27.40;91.20;;;;;;4192943;28;20394;-70
2022/10/23 02:19:52;;;;;;;;;;;27.40;91.00;;;;;;4191233;28;20375;-70
2022/10/23 02:22:03;;;;;;;;;;;27.40;91.10;;;;;;4185672;28;19928;-71
2022/10/23 02:24:11;;;;;;;;;;;27.50;91.60;;;;;;4192056;28;19932;-69
2022/10/23 02:26:39;;;;;;;;;;;27.60;91.60;;;;;;4194078;28;19928;-70
2022/10/23 02:28:45;;;;;;;;;;;27.50;91.20;;;;;;4210244;28;20450;-68
2022/10/23 02:30:49;;;;;;;;;;;27.60;91.00;;;;;;4195828;28;19971;-69
2022/10/23 02:32:54;;;;;;;;;;;27.70;90.70;;;;;;4196239;28;20018;-69
2022/10/23 02:35:03;;;;;;;;;;;27.80;90.60;;;;;;4195963;28;20667;-69
2022/10/23 02:37:07;;;;;;;;;;;27.80;90.60;;;;;;4197735;28;19928;-69
2022/10/23 02:39:12;;;;;;;;;;;27.90;90.60;;;;;;4230111;28;20449;-70
2022/10/23 02:41:26;;;;;;;;;;;28.10;90.40;;;;;;4221094;28;21020;-70
2022/10/23 02:43:42;;;;;;;;;;;28.00;89.70;;;;;;4196532;28;20027;-69
2022/10/23 02:45:59;;;;;;;;;;;28.20;90.60;;;;;;4179394;28;20024;-69
2022/10/23 02:48:21;;;;;;;;;;;28.20;89.00;;;;;;4195220;28;20375;-69
2022/10/23 02:50:28;;;;;;;;;;;28.00;89.00;;;;;;4197592;28;19974;-69
2022/10/23 02:52:36;;;;;;;;;;;27.90;88.70;;;;;;4219957;28;19927;-69
2022/10/23 02:54:52;;;;;;;;;;;27.80;88.80;;;;;;4230172;28;19934;-69
2022/10/23 02:57:02;;;;;;;;;;;27.80;87.80;;;;;;4205977;28;19935;-69
2022/10/23 02:59:14;;;;;;;;;;;27.90;88.70;;;;;;4207955;28;20433;-70
2022/10/23 03:01:22;;;;;;;;;;;28.00;89.00;;;;;;4200881;28;19929;-69
2022/10/23 03:03:34;;;;;;;;;;;28.10;89.50;;;;;;4191543;28;20414;-68
2022/10/23 03:05:40;;;;;;;;;;;28.20;88.70;;;;;;4192806;28;19974;-68
2022/10/23 03:07:50;;;;;;;;;;;28.20;88.50;;;;;;4175353;28;19936;-70
2022/10/23 03:09:55;;;;;;;;;;;28.20;87.30;;;;;;4193849;28;19963;-68
2022/10/23 03:12:00;;;;;;;;;;;28.20;88.40;;;;;;4196282;28;20634;-68
2022/10/23 03:14:07;;;;;;;;;;;28.30;88.40;;;;;;4175084;28;20542;-70
2022/10/23 03:16:11;;;;;;;;;;;28.40;88.20;;;;;;4209784;28;19973;-70
2022/10/23 03:18:23;;;;;;;;;;;28.40;87.60;;;;;;4214391;28;20015;-71
2022/10/23 03:20:29;;;;;;;;;;;28.40;87.80;;;;;;4199156;28;20641;-70
2022/10/23 03:22:38;;;;;;;;;;;28.50;88.00;;;;;;4196660;28;19925;-71
2022/10/23 03:24:50;;;;;;;;;;;28.50;87.90;;;;;;4207303;28;19966;-70
2022/10/23 03:27:03;;;;;;;;;;;28.50;86.30;;;;;;4198863;28;19947;-70
2022/10/23 03:29:10;;;;;;;;;;;28.50;86.20;;;;;;4210220;28;20010;-71
2022/10/23 03:31:20;;;;;;;;;;;28.60;86.90;;;;;;4184461;28;19971;-70
2022/10/23 03:33:31;;;;;;;;;;;28.60;85.10;;;;;;4188774;28;20278;-68
2022/10/23 03:35:47;;;;;;;;;;;28.60;86.70;;;;;;4188016;28;19967;-69
2022/10/23 03:37:51;;;;;;;;;;;28.70;85.90;;;;;;4209779;28;19932;-71
2022/10/23 03:40:02;;;;;;;;;;;28.80;86.20;;;;;;4216032;28;19970;-70
2022/10/23 03:42:09;;;;;;;;;;;28.80;86.00;;;;;;4221105;28;19928;-69
2022/10/23 03:44:13;;;;;;;;;;;28.90;85.30;;;;;;4212728;28;20007;-70
2022/10/23 03:46:22;;;;;;;;;;;28.90;85.00;;;;;;4179269;28;20030;-71
2022/10/23 03:48:29;;;;;;;;;;;29.00;85.20;;;;;;4212436;28;20275;-70
2022/10/23 03:50:33;;;;;;;;;;;29.10;85.50;;;;;;4225960;28;19923;-70
2022/10/23 03:52:42;;;;;;;;;;;29.00;84.20;;;;;;4190106;28;19929;-70
2022/10/23 03:54:47;;;;;;;;;;;29.10;85.10;;;;;;4224950;28;19958;-70
2022/10/23 03:56:57;;;;;;;;;;;29.10;85.10;;;;;;4226685;28;20017;-69
2022/10/23 03:59:06;;;;;;;;;;;29.10;84.50;;;;;;4213414;28;20463;-70
2022/10/23 04:01:10;;;;;;;;;;;29.20;84.30;;;;;;4204104;28;19932;-69
2022/10/23 04:03:15;;;;;;;;;;;29.20;84.50;;;;;;4196725;28;19977;-69
2022/10/23 04:05:21;;;;;;;;;;;29.30;84.30;;;;;;4203817;28;19935;-69
2022/10/23 04:07:29;;;;;;;;;;;29.30;84.30;;;;;;4197880;28;19951;-68
2022/10/23 04:09:36;;;;;;;;;;;29.40;85.00;;;;;;4229048;28;19928;-69
2022/10/23 04:11:45;;;;;;;;;;;29.40;84.90;;;;;;4225251;28;19958;-69
2022/10/23 04:13:49;;;;;;;;;;;29.50;83.10;;;;;;4228806;28;19927;-69
2022/10/23 04:15:53;;;;;;;;;;;29.50;82.50;;;;;;4220663;28;20005;-70
2022/10/23 04:18:01;;;;;;;;;;;29.50;82.70;;;;;;4177565;28;19983;-70
2022/10/23 04:20:07;;;;;;;;;;;29.50;82.90;;;;;;4162996;28;19937;-70
2022/10/23 04:22:14;;;;;;;;;;;29.60;83.60;;;;;;4176144;28;19948;-70
2022/10/23 04:24:20;;;;;;;;;;;29.60;83.70;;;;;;4211252;28;19931;-71
2022/10/23 04:26:24;;;;;;;;;;;29.70;82.40;;;;;;4194916;28;19933;-70
2022/10/23 04:28:28;;;;;;;;;;;29.70;82.10;;;;;;4210668;28;19924;-70
2022/10/23 04:30:34;;;;;;;;;;;29.70;81.80;;;;;;4195214;28;19928;-70
2022/10/23 04:32:38;;;;;;;;;;;29.80;82.10;;;;;;4211687;28;19939;-71
2022/10/23 04:34:45;;;;;;;;;;;29.80;80.30;;;;;;4195639;28;19968;-70
2022/10/23 04:36:54;;;;;;;;;;;29.80;80.20;;;;;;4194940;28;20015;-71
2022/10/23 04:38:58;;;;;;;;;;;29.90;79.50;;;;;;4193321;28;20353;-70
2022/10/23 04:41:03;;;;;;;;;;;29.90;80.60;;;;;;4211648;28;20402;-69
2022/10/23 04:43:09;;;;;;;;;;;30.00;80.40;;;;;;4197718;28;19977;-70
2022/10/23 04:45:15;;;;;;;;;;;30.00;80.10;;;;;;4228266;28;19924;-69
2022/10/23 04:47:20;;;;;;;;;;;30.10;80.90;;;;;;4228500;28;19928;-70
2022/10/23 04:49:35;;;;;;;;;;;30.20;80.70;;;;;;4207574;28;19985;-70
2022/10/23 04:51:54;;;;;;;;;;;30.20;80.20;;;;;;4211130;28;19944;-71
2022/10/23 04:54:20;;;;;;;;;;;30.30;77.50;;;;;;4194680;28;20025;-70
2022/10/23 04:56:46;;;;;;;;;;;30.30;77.30;;;;;;4210354;28;20330;-70
2022/10/23 04:58:53;;;;;;;;;;;30.20;78.00;;;;;;4201005;28;20386;-69
2022/10/23 05:01:06;;;;;;;;;;;30.20;77.90;;;;;;4172357;28;19933;-68
2022/10/23 05:03:19;;;;;;;;;;;30.30;77.40;;;;;;4173522;28;19928;-68
2022/10/23 05:05:24;;;;;;;;;;;30.40;78.00;;;;;;4173355;28;20737;-69
2022/10/23 05:07:41;;;;;;;;;;;30.40;77.70;;;;;;4214766;28;20041;-69
2022/10/23 05:10:14;;;;;;;;;;;30.40;76.50;;;;;;4193563;28;19929;-68
2022/10/23 05:12:26;;;;;;;;;;;30.50;76.10;;;;;;4177322;28;19998;-69
2022/10/23 05:14:31;;;;;;;;;;;30.50;76.70;;;;;;4209430;28;20024;-70
2022/10/23 05:16:43;;;;;;;;;;;30.50;76.10;;;;;;4210857;28;20331;-68
2022/10/23 05:18:47;;;;;;;;;;;30.50;76.50;;;;;;4210450;28;19925;-69
2022/10/23 05:20:53;;;;;;;;;;;30.50;77.00;;;;;;4207493;28;20406;-69
2022/10/23 05:23:02;;;;;;;;;;;30.60;76.80;;;;;;4176574;28;19929;-70
2022/10/23 05:25:07;;;;;;;;;;;30.60;75.50;;;;;;4174286;28;21021;-70
2022/10/23 05:27:11;;;;;;;;;;;30.50;75.70;;;;;;4195134;28;19935;-69
2022/10/23 05:29:22;;;;;;;;;;;30.60;76.10;;;;;;4194367;28;19924;-68
2022/10/23 05:31:26;;;;;;;;;;;30.60;75.40;;;;;;4175817;28;19982;-69
2022/10/23 05:33:39;;;;;;;;;;;30.70;77.00;;;;;;4190265;28;20290;-69
2022/10/23 05:35:48;;;;;;;;;;;30.80;77.30;;;;;;4184610;28;20019;-69
2022/10/23 05:37:56;;;;;;;;;;;30.80;76.30;;;;;;4195343;28;20184;-71
2022/10/23 05:40:01;;;;;;;;;;;30.80;76.90;;;;;;4197740;28;19932;-70
2022/10/23 05:42:10;;;;;;;;;;;30.80;77.40;;;;;;4185752;28;19939;-70
2022/10/23 05:44:22;;;;;;;;;;;30.90;76.00;;;;;;4205012;28;19932;-70
2022/10/23 05:46:46;;;;;;;;;;;30.90;75.10;;;;;;4191854;28;19924;-70
2022/10/23 05:49:24;;;;;;;;;;;30.90;75.60;;;;;;4197001;28;20343;-70
2022/10/23 05:51:29;;;;;;;;;;;30.90;75.40;;;;;;4197579;28;19928;-70
2022/10/23 05:54:00;;;;;;;;;;;30.90;74.80;;;;;;4175273;28;19928;-69
2022/10/23 05:56:32;;;;;;;;;;;30.90;74.50;;;;;;4215227;28;19932;-72
2022/10/23 05:58:43;;;;;;;;;;;30.90;74.10;;;;;;4194654;28;19935;-72
2022/10/23 06:01:06;;;;;;;;;;;30.90;75.10;;;;;;4208076;28;19931;-71
2022/10/23 06:03:38;;;;;;;;;;;30.90;74.80;;;;;;4203053;28;20028;-72
2022/10/23 06:05:49;;;;;;;;;;;30.90;75.30;;;;;;4211146;28;20455;-71
2022/10/23 06:07:59;;;;;;;;;;;31.00;74.10;;;;;;4170007;28;19931;-71
2022/10/23 06:10:20;;;;;;;;;;;30.90;74.10;;;;;;4187595;28;19924;-72
2022/10/23 06:12:26;;;;;;;;;;;30.90;74.80;;;;;;4191525;28;19928;-72
2022/10/23 06:14:34;;;;;;;;;;;30.90;74.40;;;;;;4173373;28;19936;-72
2022/10/23 06:16:41;;;;;;;;;;;31.00;74.50;;;;;;4183696;28;20098;-69
2022/10/23 06:18:46;;;;;;;;;;;31.00;73.50;;;;;;4162003;28;20019;-70
2022/10/23 06:20:52;;;;;;;;;;;31.00;72.60;;;;;;4155987;28;19925;-70
2022/10/23 06:23:03;;;;;;;;;;;31.10;73.70;;;;;;4184691;28;19986;-71
2022/10/23 06:25:29;;;;;;;;;;;31.10;74.10;;;;;;4171610;28;19924;-71
2022/10/23 06:27:33;;;;;;;;;;;31.10;73.60;;;;;;4184565;28;20502;-70
2022/10/23 06:29:40;;;;;;;;;;;31.10;73.50;;;;;;4133384;28;19932;-69
2022/10/23 06:31:44;;;;;;;;;;;31.10;72.70;;;;;;4205846;28;19928;-72
2022/10/23 06:33:48;;;;;;;;;;;31.10;73.10;;;;;;4166196;28;19929;-71
2022/10/23 06:35:55;;;;;;;;;;;31.10;73.10;;;;;;4192523;28;19932;-71
2022/10/23 06:38:00;;;;;;;;;;;31.10;72.90;;;;;;4198613;28;20022;-70
2022/10/23 06:40:13;;;;;;;;;;;31.00;73.20;;;;;;4150534;28;19935;-72
2022/10/23 06:42:43;;;;;;;;;;;31.00;73.80;;;;;;4197371;28;20406;-71
2022/10/23 06:45:13;;;;;;;;;;;31.00;74.00;;;;;;4173554;28;19933;-71
2022/10/23 06:47:36;;;;;;;;;;;31.10;74.90;;;;;;4181484;28;20031;-75
2022/10/23 06:50:08;;;;;;;;;;;31.10;75.30;;;;;;4186904;28;19928;-70
2022/10/23 06:52:19;;;;;;;;;;;31.20;75.00;;;;;;4159719;28;19936;-70
2022/10/23 06:54:45;;;;;;;;;;;31.10;75.00;;;;;;4193160;28;19986;-68
2022/10/23 06:56:55;;;;;;;;;;;31.10;74.60;;;;;;4156271;28;19968;-71
2022/10/23 06:59:09;;;;;;;;;;;31.10;74.20;;;;;;4172661;28;19939;-70
2022/10/23 07:01:15;;;;;;;;;;;31.20;74.80;;;;;;4159704;28;19932;-70
2022/10/23 07:03:20;;;;;;;;;;;31.10;74.90;;;;;;4154968;28;20437;-69
2022/10/23 07:05:24;;;;;;;;;;;31.20;75.60;;;;;;4160821;28;20696;-69
2022/10/23 07:07:31;;;;;;;;;;;31.20;75.80;;;;;;4183721;28;19933;-69
2022/10/23 07:09:40;;;;;;;;;;;31.20;75.50;;;;;;4174437;28;19928;-69
2022/10/23 07:11:56;;;;;;;;;;;31.20;76.00;;;;;;4175795;28;20016;-68
2022/10/23 07:14:14;;;;;;;;;;;31.30;76.30;;;;;;4159269;28;19925;-69
2022/10/23 07:16:21;;;;;;;;;;;31.30;75.30;;;;;;4153862;28;19933;-70
2022/10/23 07:18:45;;;;;;;;;;;31.30;75.20;;;;;;4158560;28;19951;-69
2022/10/23 07:21:01;;;;;;;;;;;31.30;75.70;;;;;;4176908;28;19928;-70
2022/10/23 07:23:15;;;;;;;;;;;31.30;75.50;;;;;;4130928;28;19972;-70
2022/10/23 07:25:24;;;;;;;;;;;31.30;75.70;;;;;;4159608;28;19960;-69
2022/10/23 07:27:29;;;;;;;;;;;31.30;76.00;;;;;;4152622;28;19931;-71
2022/10/23 07:29:37;;;;;;;;;;;31.30;75.80;;;;;;4170523;28;19994;-70
2022/10/23 07:31:41;;;;;;;;;;;31.30;76.40;;;;;;4193215;28;20385;-70
2022/10/23 07:34:10;;;;;;;;;;;31.30;75.90;;;;;;4148698;28;20011;-69
2022/10/23 07:36:17;;;;;;;;;;;31.40;76.10;;;;;;4164580;28;19924;-69
2022/10/23 07:38:22;;;;;;;;;;;31.40;76.70;;;;;;4177015;28;20380;-71
2022/10/23 07:40:28;;;;;;;;;;;31.40;76.30;;;;;;4169027;28;20015;-70
2022/10/23 07:42:37;;;;;;;;;;;31.40;75.40;;;;;;4185002;28;19928;-70
2022/10/23 07:44:42;;;;;;;;;;;31.40;74.70;;;;;;4173419;28;20447;-70
2022/10/23 07:46:47;;;;;;;;;;;31.40;74.50;;;;;;4169225;28;19935;-69
2022/10/23 07:48:51;;;;;;;;;;;31.40;75.00;;;;;;4174827;28;20338;-68
2022/10/23 07:51:00;;;;;;;;;;;31.50;75.50;;;;;;4185834;28;19928;-70
2022/10/23 07:53:05;;;;;;;;;;;31.50;75.00;;;;;;4170344;28;19929;-70
2022/10/23 07:55:19;;;;;;;;;;;31.40;74.70;;;;;;4173087;28;19925;-70
2022/10/23 07:57:28;;;;;;;;;;;31.50;74.70;;;;;;4171818;28;19928;-71
2022/10/23 07:59:57;;;;;;;;;;;31.50;75.30;;;;;;4155331;28;20001;-70
2022/10/23 08:02:11;;;;;;;;;;;31.50;75.30;;;;;;4167731;28;19952;-69
2022/10/23 08:04:27;;;;;;;;;;;31.40;75.30;;;;;;4193804;28;19968;-69
2022/10/23 08:06:42;;;;;;;;;;;31.50;75.90;;;;;;4192017;28;19932;-69
2022/10/23 08:08:49;;;;;;;;;;;31.50;74.80;;;;;;4175555;28;19932;-69
2022/10/23 08:10:53;;;;;;;;;;;31.50;74.70;;;;;;4201409;28;20002;-69
2022/10/23 08:13:02;;;;;;;;;;;31.50;74.20;;;;;;4162900;28;20056;-69
2022/10/23 08:15:31;;;;;;;;;;;31.50;74.20;;;;;;4154756;28;19925;-70
2022/10/23 08:17:42;;;;;;;;;;;31.50;74.90;;;;;;4158895;28;19932;-71
2022/10/23 08:19:50;;;;;;;;;;;31.50;74.60;;;;;;4156535;28;19961;-71
2022/10/23 08:22:00;;;;;;;;;;;31.50;74.70;;;;;;4162329;28;19929;-70
2022/10/23 08:24:06;;;;;;;;;;;31.50;74.40;;;;;;4180195;28;20027;-70
2022/10/23 08:26:14;;;;;;;;;;;31.50;74.40;;;;;;4135209;28;19932;-70
2022/10/23 08:28:28;;;;;;;;;;;31.50;74.40;;;;;;4142126;28;20020;-70
2022/10/23 08:30:34;;;;;;;;;;;31.50;74.00;;;;;;4109552;28;20516;-70
2022/10/23 08:32:38;;;;;;;;;;;31.50;74.80;;;;;;4157912;28;19937;-70
2022/10/23 08:34:50;;;;;;;;;;;31.60;75.10;;;;;;4150835;28;19925;-70
2022/10/23 08:36:56;;;;;;;;;;;31.60;74.70;;;;;;4117075;28;19987;-70
2022/10/23 08:39:00;;;;;;;;;;;31.60;75.50;;;;;;4143713;28;22342;-70
2022/10/23 08:41:12;;;;;;;;;;;31.60;75.00;;;;;;4155411;28;19925;-70
2022/10/23 08:43:57;;;;;;;;;;;31.60;74.50;;;;;;4159680;28;20577;-67
2022/10/23 08:46:11;;;;;;;;;;;31.50;74.40;;;;;;4109968;28;19970;-72
2022/10/23 08:48:49;;;;;;;;;;;31.50;72.90;;;;;;4120914;28;19930;-73
2022/10/23 08:51:33;;;;;;;;;;;31.50;73.10;;;;;;4138506;28;19926;-70
2022/10/23 08:53:41;;;;;;;;;;;31.50;73.20;;;;;;4132050;28;19930;-71
2022/10/23 08:56:08;;;;;;;;;;;31.50;73.80;;;;;;4105796;28;19961;-71
2022/10/23 08:58:16;;;;;;;;;;;31.50;73.70;;;;;;4126748;28;19933;-71
2022/10/23 09:00:24;;;;;;;;;;;31.50;73.90;;;;;;4121750;28;20501;-71
2022/10/23 09:02:32;;;;;;;;;;;31.50;74.10;;;;;;4142355;28;20494;-71
2022/10/23 09:04:36;;;;;;;;;;;31.50;73.90;;;;;;4127430;28;19949;-72
2022/10/23 09:07:00;;;;;;;;;;;31.50;74.20;;;;;;4111959;28;20344;-73
2022/10/23 09:09:08;;;;;;;;;;;31.50;74.10;;;;;;4111740;28;20384;-72
2022/10/23 09:11:41;;;;;;;;;;;31.50;74.80;;;;;;4121377;28;20053;-72
2022/10/23 09:14:03;;;;;;;;;;;31.50;74.80;;;;;;4128495;28;19936;-72
2022/10/23 09:16:15;;;;;;;;;;;31.50;75.10;;;;;;4127059;28;19972;-71
2022/10/23 09:18:19;;;;;;;;;;;31.50;74.60;;;;;;4111348;28;19934;-72
2022/10/23 09:20:31;;;;;;;;;;;31.50;74.10;;;;;;4127681;28;19933;-72
2022/10/23 09:22:35;;;;;;;;;;;31.40;74.10;;;;;;4181694;28;19931;-70
2022/10/23 09:24:41;;;;;;;;;;;31.50;74.20;;;;;;4195178;28;20337;-71
2022/10/23 09:26:48;;;;;;;;;;;31.50;74.30;;;;;;4210089;28;19934;-71
2022/10/23 09:28:56;;;;;;;;;;;31.50;74.60;;;;;;4177038;28;20023;-71
2022/10/23 09:31:09;;;;;;;;;;;31.40;74.80;;;;;;4180881;28;19929;-71
2022/10/23 09:33:21;;;;;;;;;;;31.40;74.70;;;;;;4209971;28;19943;-73
2022/10/23 09:35:27;;;;;;;;;;;31.40;74.20;;;;;;4209836;28;19930;-72
2022/10/23 09:37:33;;;;;;;;;;;31.40;74.70;;;;;;4214866;28;19927;-71
2022/10/23 09:39:40;;;;;;;;;;;31.40;74.30;;;;;;4199912;28;19935;-73
2022/10/23 09:41:45;;;;;;;;;;;31.30;74.50;;;;;;4209762;28;20378;-73
2022/10/23 09:44:07;;;;;;;;;;;31.40;74.30;;;;;;4194764;28;20390;-72
2022/10/23 09:46:13;;;;;;;;;;;31.40;75.30;;;;;;4210636;28;20047;-70
2022/10/23 09:48:17;;;;;;;;;;;31.30;75.00;;;;;;4194111;28;19925;-70
2022/10/23 09:50:22;;;;;;;;;;;31.30;75.10;;;;;;4205270;28;19928;-71
2022/10/23 09:52:29;;;;;;;;;;;31.20;75.20;;;;;;4206046;28;20655;-72
2022/10/23 09:54:38;;;;;;;;;;;31.20;75.20;;;;;;4174515;28;19971;-72
2022/10/23 09:56:45;;;;;;;;;;;31.20;75.50;;;;;;4176983;28;19982;-73
2022/10/23 09:58:57;;;;;;;;;;;31.10;75.80;;;;;;4192639;28;19979;-73
2022/10/23 10:01:20;;;;;;;;;;;31.10;75.70;;;;;;4174851;28;20291;-74
2022/10/23 10:03:25;;;;;;;;;;;31.10;76.20;;;;;;4192098;28;19929;-74
2022/10/23 10:05:52;;;;;;;;;;;31.10;76.50;;;;;;4194016;28;19979;-73
2022/10/23 10:07:57;;;;;;;;;;;31.00;76.80;;;;;;4189424;28;19928;-73
2022/10/23 10:10:10;;;;;;;;;;;31.00;77.00;;;;;;4191976;28;20027;-73
2022/10/23 10:12:29;;;;;;;;;;;31.00;77.10;;;;;;4177105;28;19928;-72
2022/10/23 10:14:54;;;;;;;;;;;31.00;77.20;;;;;;4175927;28;19925;-72
2022/10/23 10:17:15;;;;;;;;;;;30.90;77.00;;;;;;4193613;28;19936;-74
2022/10/23 10:19:32;;;;;;;;;;;30.80;76.90;;;;;;4193491;28;20411;-72
2022/10/23 10:21:45;;;;;;;;;;;30.80;77.80;;;;;;4192323;28;19925;-73
2022/10/23 10:23:54;;;;;;;;;;;30.80;77.60;;;;;;4201565;28;19962;-73
2022/10/23 10:26:50;;;;;;;;;;;30.80;77.80;;;;;;4191147;28;19929;-71
2022/10/23 10:29:02;;;;;;;;;;;30.70;78.00;;;;;;4158263;28;20081;-71
2022/10/23 10:31:10;;;;;;;;;;;30.70;79.10;;;;;;4169387;28;19936;-73
2022/10/23 10:33:21;;;;;;;;;;;30.60;79.60;;;;;;4158353;28;19984;-73
2022/10/23 10:35:37;;;;;;;;;;;30.60;79.70;;;;;;4165724;28;20024;-72
2022/10/23 10:37:47;;;;;;;;;;;30.50;79.60;;;;;;4162535;28;19935;-72
2022/10/23 10:40:22;;;;;;;;;;;30.50;80.20;;;;;;4155440;28;19929;-73
2022/10/23 10:43:04;;;;;;;;;;;30.50;80.60;;;;;;4163865;28;19925;-73
2022/10/23 10:45:27;;;;;;;;;;;30.40;81.00;;;;;;4160209;28;20091;-73
2022/10/23 10:47:31;;;;;;;;;;;30.30;81.40;;;;;;4164918;28;19929;-73
2022/10/23 10:49:44;;;;;;;;;;;30.30;82.00;;;;;;4169663;28;19943;-72
2022/10/23 10:52:12;;;;;;;;;;;30.20;82.30;;;;;;4123033;28;19977;-72
2022/10/23 10:54:29;;;;;;;;;;;30.20;82.60;;;;;;4161026;28;19929;-73
2022/10/23 10:56:34;;;;;;;;;;;30.20;82.80;;;;;;4161183;28;20654;-72
2022/10/23 10:58:55;;;;;;;;;;;30.10;82.90;;;;;;4144114;28;19929;-73
2022/10/23 11:00:59;;;;;;;;;;;30.10;83.20;;;;;;4179357;28;19995;-73
2022/10/23 11:03:08;;;;;;;;;;;30.10;83.40;;;;;;4178932;28;20011;-73
2022/10/23 11:05:36;;;;;;;;;;;30.00;83.50;;;;;;4177805;28;19925;-73
2022/10/23 11:07:40;;;;;;;;;;;30.00;83.60;;;;;;4180246;28;19976;-74
2022/10/23 11:09:45;;;;;;;;;;;30.00;83.90;;;;;;4211226;28;19928;-74
2022/10/23 11:12:17;;;;;;;;;;;30.00;84.40;;;;;;4181044;28;19929;-74
2022/10/23 11:14:23;;;;;;;;;;;29.90;84.60;;;;;;4209914;28;19928;-72
2022/10/23 11:16:47;;;;;;;;;;;29.90;84.80;;;;;;4179453;28;19925;-72
2022/10/23 11:19:06;;;;;;;;;;;29.90;85.40;;;;;;4200406;28;19962;-72
2022/10/23 11:21:54;;;;;;;;;;;29.80;85.30;;;;;;4176631;28;19935;-72
2022/10/23 11:24:18;;;;;;;;;;;29.80;85.60;;;;;;4178247;28;19979;-73
2022/10/23 11:26:21;;;;;;;;;;;29.80;86.00;;;;;;4179420;28;19936;-71
2022/10/23 11:28:46;;;;;;;;;;;29.80;86.50;;;;;;4185470;28;19986;-72
2022/10/23 11:31:00;;;;;;;;;;;29.70;87.20;;;;;;4210721;28;19955;-72
2022/10/23 11:33:07;;;;;;;;;;;29.70;87.50;;;;;;4187850;28;19978;-71
2022/10/23 11:35:34;;;;;;;;;;;29.70;87.50;;;;;;4186290;28;19931;-72
2022/10/23 11:37:42;;;;;;;;;;;29.70;87.80;;;;;;4210877;28;20040;-72
2022/10/23 11:40:16;;;;;;;;;;;29.60;89.20;;;;;;4177990;28;20066;-72
2022/10/23 11:42:32;;;;;;;;;;;29.60;90.40;;;;;;4192616;28;19924;-71
2022/10/23 11:44:47;;;;;;;;;;;29.60;91.20;;;;;;4176258;28;19929;-72
2022/10/23 11:47:02;;;;;;;;;;;29.60;91.70;;;;;;4190450;28;20422;-74
2022/10/23 11:49:22;;;;;;;;;;;29.60;91.80;;;;;;4187998;28;19929;-72
2022/10/23 11:51:39;;;;;;;;;;;29.50;92.10;;;;;;4183776;28;20047;-70
2022/10/23 11:54:09;;;;;;;;;;;29.50;92.20;;;;;;4162558;28;20017;-74
2022/10/23 11:56:20;;;;;;;;;;;29.50;92.20;;;;;;4183816;28;19933;-74
2022/10/23 11:58:31;;;;;;;;;;;29.50;92.20;;;;;;4188166;28;19928;-73
2022/10/23 12:00:38;;;;;;;;;;;29.40;92.30;;;;;;4173918;28;19933;-74
2022/10/23 12:02:42;;;;;;;;;;;29.40;92.10;;;;;;4179007;28;19928;-73
2022/10/23 12:04:52;;;;;;;;;;;29.40;92.20;;;;;;4180878;28;19939;-73
2022/10/23 12:07:00;;;;;;;;;;;29.40;92.20;;;;;;4185101;28;20543;-73
2022/10/23 12:09:24;;;;;;;;;;;29.30;92.20;;;;;;4177872;28;20514;-72
2022/10/23 12:11:45;;;;;;;;;;;29.30;92.00;;;;;;4169076;28;19928;-74
2022/10/23 12:13:50;;;;;;;;;;;29.30;91.80;;;;;;4168972;28;19933;-73
2022/10/23 12:15:54;;;;;;;;;;;29.30;91.60;;;;;;4179171;28;19929;-73
2022/10/23 12:18:16;;;;;;;;;;;29.30;91.50;;;;;;4163097;28;19929;-72
2022/10/23 12:20:27;;;;;;;;;;;29.20;91.40;;;;;;4208338;28;19965;-73
2022/10/23 12:22:41;;;;;;;;;;;29.20;91.20;;;;;;4178871;28;19929;-73
2022/10/23 12:25:06;;;;;;;;;;;29.10;91.20;;;;;;4208733;28;20386;-74
2022/10/23 12:27:18;;;;;;;;;;;29.10;91.20;;;;;;4169600;28;20350;-74
2022/10/23 12:29:41;;;;;;;;;;;29.10;91.30;;;;;;4178397;28;19925;-74
2022/10/23 12:31:53;;;;;;;;;;;29.00;91.60;;;;;;4177704;28;20031;-73
2022/10/23 12:34:01;;;;;;;;;;;29.00;91.70;;;;;;4171228;28;19971;-72
2022/10/23 12:36:24;;;;;;;;;;;29.00;91.80;;;;;;4209956;28;20027;-72
2022/10/23 12:38:33;;;;;;;;;;;29.00;92.00;;;;;;4176990;28;20531;-73
2022/10/23 12:40:39;;;;;;;;;;;29.10;92.20;;;;;;4184100;28;20345;-72
2022/10/23 12:42:52;;;;;;;;;;;29.00;92.30;;;;;;4143130;28;19925;-72
2022/10/23 12:45:10;;;;;;;;;;;29.10;92.20;;;;;;4141515;28;19965;-72
2022/10/23 12:47:21;;;;;;;;;;;29.00;92.30;;;;;;4141778;28;19987;-73